sensor_id;sensor_type;location;lat;lon;timestamp;temperature;humidity
31074;DHT22;17730;53.552;9.940;2022-07-09T04:18:40;15.90;99.90
31074;DHT22;17730;53.552;9.940;2022-07-09T04:21:09;15.40;99.90
31074;DHT22;17730;53.552;9.940;2022-07-09T04:23:35;15.40;99.90
31074;DHT22;17730;53.552;9.940;2022-07-09T04:26:01;15.40;99.90
31074;DHT22;17730;53.552;9.940;2022-07-09T04:28:26;15.40;99.90
31074;DHT22;17730;53.552;9.940;2022-07-09T04:30:52;15.40;99.90
31074;DHT22;17730;53.552;9.940;2022-07-09T04:33:18;15.50;99.90
31074;DHT22;17730;53.552;9.940;2022-07-09T04:35:44;15.50;99.90
31074;DHT22;17730;53.552;9.940;2022-07-09T04:38:11;15.50;99.90
31074;DHT22;17730;53.552;9.940;2022-07-09T04:40:37;15.60;99.90
31074;DHT22;17730;53.552;9.940;2022-07-09T04:43:04;15.60;99.90
31074;DHT22;17730;53.552;9.940;2022-07-09T04:45:29;15.60;99.90
31074;DHT22;17730;53.552;9.940;2022-07-09T04:47:57;15.60;99.90
31074;DHT22;17730;53.552;9.940;2022-07-09T04:50:23;15.60;99.90
31074;DHT22;17730;53.552;9.940;2022-07-09T04:52:49;15.70;99.90
31074;DHT22;17730;53.552;9.940;2022-07-09T04:55:14;15.70;99.90
31074;DHT22;17730;53.552;9.940;2022-07-09T04:57:42;15.70;99.90
31074;DHT22;17730;53.552;9.940;2022-07-09T05:00:10;15.70;99.90
31074;DHT22;17730;53.552;9.940;2022-07-09T05:02:39;15.70;99.90
31074;DHT22;17730;53.552;9.940;2022-07-09T05:05:05;15.80;99.90
31074;DHT22;17730;53.552;9.940;2022-07-09T05:07:32;15.80;99.90
31074;DHT22;17730;53.552;9.940;2022-07-09T05:09:58;15.90;99.90
31074;DHT22;17730;53.552;9.940;2022-07-09T05:12:25;15.90;99.90
31074;DHT22;17730;53.552;9.940;2022-07-09T05:14:51;16.00;99.90
31074;DHT22;17730;53.552;9.940;2022-07-09T05:17:17;16.10;99.90
31074;DHT22;17730;53.552;9.940;2022-07-09T05:19:42;16.10;99.90
31074;DHT22;17730;53.552;9.940;2022-07-09T05:22:08;16.10;99.90
31074;DHT22;17730;53.552;9.940;2022-07-09T05:24:33;16.10;99.90
31074;DHT22;17730;53.552;9.940;2022-07-09T05:26:59;16.20;99.90
31074;DHT22;17730;53.552;9.940;2022-07-09T05:29:24;16.30;99.90
31074;DHT22;17730;53.552;9.940;2022-07-09T05:31:52;16.30;99.90
31074;DHT22;17730;53.552;9.940;2022-07-09T05:34:18;16.40;99.90
31074;DHT22;17730;53.552;9.940;2022-07-09T05:36:44;16.40;99.90
31074;DHT22;17730;53.552;9.940;2022-07-09T05:39:10;16.40;99.90
31074;DHT22;17730;53.552;9.940;2022-07-09T05:41:35;16.40;99.90
31074;DHT22;17730;53.552;9.940;2022-07-09T05:44:01;16.30;99.90
31074;DHT22;17730;53.552;9.940;2022-07-09T05:46:29;16.30;99.90
31074;DHT22;17730;53.552;9.940;2022-07-09T05:48:55;16.30;99.90
31074;DHT22;17730;53.552;9.940;2022-07-09T05:51:21;16.40;99.90
31074;DHT22;17730;53.552;9.940;2022-07-09T05:53:47;16.30;99.90
31074;DHT22;17730;53.552;9.940;2022-07-09T05:56:12;16.40;99.90
31074;DHT22;17730;53.552;9.940;2022-07-09T05:58:38;16.40;99.90
31074;DHT22;17730;53.552;9.940;2022-07-09T06:01:05;16.50;99.90
31074;DHT22;17730;53.552;9.940;2022-07-09T06:03:31;16.50;99.90
31074;DHT22;17730;53.552;9.940;2022-07-09T06:05:57;16.50;99.90
31074;DHT22;17730;53.552;9.940;2022-07-09T06:08:23;16.50;99.90
31074;DHT22;17730;53.552;9.940;2022-07-09T06:10:49;16.60;99.90
31074;DHT22;17730;53.552;9.940;2022-07-09T06:13:15;16.70;99.90
31074;DHT22;17730;53.552;9.940;2022-07-09T06:15:41;16.80;99.90
31074;DHT22;17730;53.552;9.940;2022-07-09T06:18:07;16.90;99.90
31074;DHT22;17730;53.552;9.940;2022-07-09T06:20:32;17.00;99.90
31074;DHT22;17730;53.552;9.940;2022-07-09T06:22:58;17.00;99.90
31074;DHT22;17730;53.552;9.940;2022-07-09T06:25:23;17.00;99.90
31074;DHT22;17730;53.552;9.940;2022-07-09T06:27:49;17.00;99.90
31074;DHT22;17730;53.552;9.940;2022-07-09T06:30:15;17.10;99.90
31074;DHT22;17730;53.552;9.940;2022-07-09T06:32:40;17.20;99.90
31074;DHT22;17730;53.552;9.940;2022-07-09T06:35:06;17.20;99.90
31074;DHT22;17730;53.552;9.940;2022-07-09T06:37:32;17.30;99.90
31074;DHT22;17730;53.552;9.940;2022-07-09T06:39:57;17.30;99.90
31074;DHT22;17730;53.552;9.940;2022-07-09T06:42:24;17.40;99.90
31074;DHT22;17730;53.552;9.940;2022-07-09T06:44:50;17.40;99.90
31074;DHT22;17730;53.552;9.940;2022-07-09T06:47:16;17.40;99.90
31074;DHT22;17730;53.552;9.940;2022-07-09T06:49:42;17.40;99.90
31074;DHT22;17730;53.552;9.940;2022-07-09T06:52:07;17.40;99.90
31074;DHT22;17730;53.552;9.940;2022-07-09T06:54:34;17.60;99.90
31074;DHT22;17730;53.552;9.940;2022-07-09T06:57:00;17.80;99.90
31074;DHT22;17730;53.552;9.940;2022-07-09T06:59:26;17.90;99.90
31074;DHT22;17730;53.552;9.940;2022-07-09T07:01:52;18.10;99.90
31074;DHT22;17730;53.552;9.940;2022-07-09T07:04:17;18.20;99.90
31074;DHT22;17730;53.552;9.940;2022-07-09T07:06:45;18.30;99.90
31074;DHT22;17730;53.552;9.940;2022-07-09T07:09:15;18.30;99.90
31074;DHT22;17730;53.552;9.940;2022-07-09T07:11:46;18.20;99.90
31074;DHT22;17730;53.552;9.940;2022-07-09T07:14:12;18.00;99.90
31074;DHT22;17730;53.552;9.940;2022-07-09T07:16:38;17.80;99.90
31074;DHT22;17730;53.552;9.940;2022-07-09T07:19:03;17.70;99.90
31074;DHT22;17730;53.552;9.940;2022-07-09T07:21:29;17.80;99.90
31074;DHT22;17730;53.552;9.940;2022-07-09T07:23:54;18.00;99.90
31074;DHT22;17730;53.552;9.940;2022-07-09T07:26:20;18.10;99.90
31074;DHT22;17730;53.552;9.940;2022-07-09T07:28:45;18.30;99.90
31074;DHT22;17730;53.552;9.940;2022-07-09T07:31:11;18.50;99.90
31074;DHT22;17730;53.552;9.940;2022-07-09T07:33:37;18.50;99.90
31074;DHT22;17730;53.552;9.940;2022-07-09T07:36:04;18.50;99.90
31074;DHT22;17730;53.552;9.940;2022-07-09T07:38:29;18.60;99.90
31074;DHT22;17730;53.552;9.940;2022-07-09T07:40:55;18.60;99.90
31074;DHT22;17730;53.552;9.940;2022-07-09T07:43:21;18.50;99.90
31074;DHT22;17730;53.552;9.940;2022-07-09T07:45:46;18.50;99.90
31074;DHT22;17730;53.552;9.940;2022-07-09T07:48:12;18.50;99.90
31074;DHT22;17730;53.552;9.940;2022-07-09T07:50:38;18.80;99.90
31074;DHT22;17730;53.552;9.940;2022-07-09T09:50:25;19.00;99.90
31074;DHT22;17730;53.552;9.940;2022-07-09T09:52:53;21.90;99.90
31074;DHT22;17730;53.552;9.940;2022-07-09T09:55:20;21.80;99.90
31074;DHT22;17730;53.552;9.940;2022-07-09T09:57:48;21.50;99.90
31074;DHT22;17730;53.552;9.940;2022-07-09T10:00:15;21.10;99.90
31074;DHT22;17730;53.552;9.940;2022-07-09T10:02:45;21.00;99.90
31074;DHT22;17730;53.552;9.940;2022-07-09T10:05:11;21.20;99.90
31074;DHT22;17730;53.552;9.940;2022-07-09T10:07:37;21.40;99.90
31074;DHT22;17730;53.552;9.940;2022-07-09T10:10:05;21.50;99.90
31074;DHT22;17730;53.552;9.940;2022-07-09T10:12:35;21.30;99.90
31074;DHT22;17730;53.552;9.940;2022-07-09T10:15:25;21.50;99.90
31074;DHT22;17730;53.552;9.940;2022-07-09T10:17:52;21.60;99.90
31074;DHT22;17730;53.552;9.940;2022-07-09T10:20:30;21.80;99.90
31074;DHT22;17730;53.552;9.940;2022-07-09T10:22:57;21.90;99.90
31074;DHT22;17730;53.552;9.940;2022-07-09T10:25:29;21.90;99.90
31074;DHT22;17730;53.552;9.940;2022-07-09T10:27:55;21.80;99.90
31074;DHT22;17730;53.552;9.940;2022-07-09T10:30:28;21.60;99.90
31074;DHT22;17730;53.552;9.940;2022-07-09T10:33:11;21.70;99.90
31074;DHT22;17730;53.552;9.940;2022-07-09T10:35:44;21.80;99.90
31074;DHT22;17730;53.552;9.940;2022-07-09T10:38:10;21.60;99.90
31074;DHT22;17730;53.552;9.940;2022-07-09T10:40:41;21.80;99.90
31074;DHT22;17730;53.552;9.940;2022-07-09T10:43:07;22.30;99.90
31074;DHT22;17730;53.552;9.940;2022-07-09T10:45:41;22.40;99.90
31074;DHT22;17730;53.552;9.940;2022-07-09T10:48:10;22.10;99.90
31074;DHT22;17730;53.552;9.940;2022-07-09T10:50:41;21.70;99.90
31074;DHT22;17730;53.552;9.940;2022-07-09T10:53:08;21.60;99.90
31074;DHT22;17730;53.552;9.940;2022-07-09T10:55:34;21.40;99.90
31074;DHT22;17730;53.552;9.940;2022-07-09T10:58:00;21.20;99.90
31074;DHT22;17730;53.552;9.940;2022-07-09T11:00:31;21.20;99.90
31074;DHT22;17730;53.552;9.940;2022-07-09T11:03:03;21.00;99.90
31074;DHT22;17730;53.552;9.940;2022-07-09T11:05:30;21.00;99.90
31074;DHT22;17730;53.552;9.940;2022-07-09T11:08:02;20.90;99.90
31074;DHT22;17730;53.552;9.940;2022-07-09T11:10:29;20.90;99.90
31074;DHT22;17730;53.552;9.940;2022-07-09T11:12:56;21.00;99.90
31074;DHT22;17730;53.552;9.940;2022-07-09T11:15:24;21.20;99.90
31074;DHT22;17730;53.552;9.940;2022-07-09T11:18:06;21.20;99.90
31074;DHT22;17730;53.552;9.940;2022-07-09T11:20:37;21.00;99.90
31074;DHT22;17730;53.552;9.940;2022-07-09T11:23:03;21.00;99.90
31074;DHT22;17730;53.552;9.940;2022-07-09T11:25:29;21.00;99.90
31074;DHT22;17730;53.552;9.940;2022-07-09T11:27:59;21.10;99.90
31074;DHT22;17730;53.552;9.940;2022-07-09T11:30:25;21.30;99.90
31074;DHT22;17730;53.552;9.940;2022-07-09T11:32:51;21.60;99.90
31074;DHT22;17730;53.552;9.940;2022-07-09T11:35:25;21.90;99.90
31074;DHT22;17730;53.552;9.940;2022-07-09T11:37:51;22.20;99.90
31074;DHT22;17730;53.552;9.940;2022-07-09T11:40:18;21.90;99.90
31074;DHT22;17730;53.552;9.940;2022-07-09T11:42:44;22.00;99.90
31074;DHT22;17730;53.552;9.940;2022-07-09T11:45:10;21.70;99.90
31074;DHT22;17730;53.552;9.940;2022-07-09T11:47:38;21.40;99.90
31074;DHT22;17730;53.552;9.940;2022-07-09T11:50:12;21.30;99.90
31074;DHT22;17730;53.552;9.940;2022-07-09T11:55:13;21.40;99.90
31074;DHT22;17730;53.552;9.940;2022-07-09T11:57:49;21.30;99.90
31074;DHT22;17730;53.552;9.940;2022-07-09T12:00:32;21.20;99.90
31074;DHT22;17730;53.552;9.940;2022-07-09T12:02:58;21.40;99.90
31074;DHT22;17730;53.552;9.940;2022-07-09T12:07:52;21.70;99.90
31074;DHT22;17730;53.552;9.940;2022-07-09T12:10:25;22.10;99.90
31074;DHT22;17730;53.552;9.940;2022-07-09T12:12:51;22.10;99.90
31074;DHT22;17730;53.552;9.940;2022-07-09T12:15:17;22.00;99.90
31074;DHT22;17730;53.552;9.940;2022-07-09T12:17:43;21.90;99.90
31074;DHT22;17730;53.552;9.940;2022-07-09T12:20:09;21.50;99.90
31074;DHT22;17730;53.552;9.940;2022-07-09T12:22:35;21.40;99.90
31074;DHT22;17730;53.552;9.940;2022-07-09T12:25:01;21.50;99.90
31074;DHT22;17730;53.552;9.940;2022-07-09T12:27:27;21.70;99.90
31074;DHT22;17730;53.552;9.940;2022-07-09T12:29:52;21.70;99.90
31074;DHT22;17730;53.552;9.940;2022-07-09T12:32:18;21.50;99.90
31074;DHT22;17730;53.552;9.940;2022-07-09T12:34:44;21.30;99.90
31074;DHT22;17730;53.552;9.940;2022-07-09T12:37:10;21.20;99.90
31074;DHT22;17730;53.552;9.940;2022-07-09T12:39:36;21.30;99.90
31074;DHT22;17730;53.552;9.940;2022-07-09T12:42:02;21.10;99.90
31074;DHT22;17730;53.552;9.940;2022-07-09T12:44:28;21.00;99.90
31074;DHT22;17730;53.552;9.940;2022-07-09T12:46:53;21.00;99.90
31074;DHT22;17730;53.552;9.940;2022-07-09T12:49:19;20.70;99.90
31074;DHT22;17730;53.552;9.940;2022-07-09T12:51:45;20.80;99.90
31074;DHT22;17730;53.552;9.940;2022-07-09T12:54:11;20.80;99.90
31074;DHT22;17730;53.552;9.940;2022-07-09T12:56:37;20.80;99.90
31074;DHT22;17730;53.552;9.940;2022-07-09T12:59:03;20.80;99.90
31074;DHT22;17730;53.552;9.940;2022-07-09T13:01:28;20.70;99.90
31074;DHT22;17730;53.552;9.940;2022-07-09T13:03:54;20.90;99.90
31074;DHT22;17730;53.552;9.940;2022-07-09T13:06:21;21.00;99.90
31074;DHT22;17730;53.552;9.940;2022-07-09T13:09:04;21.20;99.20
31074;DHT22;17730;53.552;9.940;2022-07-09T13:11:30;21.20;99.90
31074;DHT22;17730;53.552;9.940;2022-07-09T13:13:56;21.20;99.90
31074;DHT22;17730;53.552;9.940;2022-07-09T13:16:21;21.20;99.90
31074;DHT22;17730;53.552;9.940;2022-07-09T13:18:48;21.20;99.90
31074;DHT22;17730;53.552;9.940;2022-07-09T13:21:14;21.10;99.90
31074;DHT22;17730;53.552;9.940;2022-07-09T13:23:39;21.30;99.80
31074;DHT22;17730;53.552;9.940;2022-07-09T13:26:05;21.40;99.50
31074;DHT22;17730;53.552;9.940;2022-07-09T13:28:32;21.30;99.80
31074;DHT22;17730;53.552;9.940;2022-07-09T13:30:58;21.40;99.70
31074;DHT22;17730;53.552;9.940;2022-07-09T13:33:24;20.80;99.90
31074;DHT22;17730;53.552;9.940;2022-07-09T15:49:52;20.40;99.90
31074;DHT22;17730;53.552;9.940;2022-07-09T15:57:11;19.60;99.10
31074;DHT22;17730;53.552;9.940;2022-07-09T15:59:36;18.80;99.90
31074;DHT22;17730;53.552;9.940;2022-07-09T16:02:02;18.30;99.90
31074;DHT22;17730;53.552;9.940;2022-07-09T16:04:28;18.30;99.90
31074;DHT22;17730;53.552;9.940;2022-07-09T16:06:53;18.30;99.90
31074;DHT22;17730;53.552;9.940;2022-07-09T16:09:19;18.00;99.90
31074;DHT22;17730;53.552;9.940;2022-07-09T16:11:45;18.20;99.90
31074;DHT22;17730;53.552;9.940;2022-07-09T16:14:29;18.40;99.90
31074;DHT22;17730;53.552;9.940;2022-07-09T16:16:56;18.40;99.90
31074;DHT22;17730;53.552;9.940;2022-07-09T16:19:22;18.40;99.90
31074;DHT22;17730;53.552;9.940;2022-07-09T16:21:48;18.30;99.90
31074;DHT22;17730;53.552;9.940;2022-07-09T16:24:13;18.40;99.90
31074;DHT22;17730;53.552;9.940;2022-07-09T16:26:39;18.80;99.90
31074;DHT22;17730;53.552;9.940;2022-07-09T16:29:04;19.20;99.90
31074;DHT22;17730;53.552;9.940;2022-07-09T16:31:30;19.50;99.90
31074;DHT22;17730;53.552;9.940;2022-07-09T16:33:55;19.60;99.70
31074;DHT22;17730;53.552;9.940;2022-07-09T16:36:21;20.00;97.70
31074;DHT22;17730;53.552;9.940;2022-07-09T16:38:46;19.90;97.50
31074;DHT22;17730;53.552;9.940;2022-07-09T16:41:13;19.90;97.50
31074;DHT22;17730;53.552;9.940;2022-07-09T16:43:39;19.30;98.50
31074;DHT22;17730;53.552;9.940;2022-07-09T16:46:05;19.00;99.10
31074;DHT22;17730;53.552;9.940;2022-07-09T16:48:41;18.90;99.80
31074;DHT22;17730;53.552;9.940;2022-07-09T16:51:09;18.70;99.90
31074;DHT22;17730;53.552;9.940;2022-07-09T16:53:35;18.70;99.90
31074;DHT22;17730;53.552;9.940;2022-07-09T16:56:01;18.60;99.90
31074;DHT22;17730;53.552;9.940;2022-07-09T16:58:29;18.90;99.90
31074;DHT22;17730;53.552;9.940;2022-07-09T17:00:55;19.00;99.90
31074;DHT22;17730;53.552;9.940;2022-07-09T17:03:21;18.80;99.90
31074;DHT22;17730;53.552;9.940;2022-07-09T17:05:46;18.60;99.90
31074;DHT22;17730;53.552;9.940;2022-07-09T17:40:00;18.30;99.90
31074;DHT22;17730;53.552;9.940;2022-07-09T17:42:26;17.30;99.90
31074;DHT22;17730;53.552;9.940;2022-07-09T17:44:52;17.30;99.90
31074;DHT22;17730;53.552;9.940;2022-07-09T17:47:17;17.30;99.90
31074;DHT22;17730;53.552;9.940;2022-07-09T17:49:43;17.20;99.90
31074;DHT22;17730;53.552;9.940;2022-07-09T17:52:09;17.20;99.90
31074;DHT22;17730;53.552;9.940;2022-07-09T17:54:35;17.00;99.90
31074;DHT22;17730;53.552;9.940;2022-07-09T17:57:00;17.00;99.90
31074;DHT22;17730;53.552;9.940;2022-07-09T17:59:26;17.00;99.90
31074;DHT22;17730;53.552;9.940;2022-07-09T18:01:52;17.20;99.90
31074;DHT22;17730;53.552;9.940;2022-07-09T18:04:17;17.20;99.90
31074;DHT22;17730;53.552;9.940;2022-07-09T18:06:44;17.20;99.90
31074;DHT22;17730;53.552;9.940;2022-07-09T18:09:10;17.20;99.90
31074;DHT22;17730;53.552;9.940;2022-07-09T18:11:36;17.20;99.90
31074;DHT22;17730;53.552;9.940;2022-07-09T18:14:02;17.80;99.90
31074;DHT22;17730;53.552;9.940;2022-07-09T18:16:28;18.00;99.90
31074;DHT22;17730;53.552;9.940;2022-07-09T18:18:53;17.80;99.90
31074;DHT22;17730;53.552;9.940;2022-07-09T18:21:19;17.50;99.90
31074;DHT22;17730;53.552;9.940;2022-07-09T18:23:44;17.30;99.90
31074;DHT22;17730;53.552;9.940;2022-07-09T18:26:11;17.20;99.90
31074;DHT22;17730;53.552;9.940;2022-07-09T18:28:37;17.10;99.90
31074;DHT22;17730;53.552;9.940;2022-07-09T18:31:03;17.10;99.90
31074;DHT22;17730;53.552;9.940;2022-07-09T18:33:29;16.90;99.90
31074;DHT22;17730;53.552;9.940;2022-07-09T18:35:54;16.80;99.90
31074;DHT22;17730;53.552;9.940;2022-07-09T18:38:20;16.80;99.90
31074;DHT22;17730;53.552;9.940;2022-07-09T18:40:46;16.70;99.90
31074;DHT22;17730;53.552;9.940;2022-07-09T18:43:11;16.70;99.90
31074;DHT22;17730;53.552;9.940;2022-07-09T18:45:37;16.60;99.90
31074;DHT22;17730;53.552;9.940;2022-07-09T18:48:03;16.50;99.90
31074;DHT22;17730;53.552;9.940;2022-07-09T18:50:31;16.60;99.90
31074;DHT22;17730;53.552;9.940;2022-07-09T18:52:56;16.50;99.90
31074;DHT22;17730;53.552;9.940;2022-07-09T18:55:22;16.50;99.90
31074;DHT22;17730;53.552;9.940;2022-07-09T18:57:47;16.50;99.90
31074;DHT22;17730;53.552;9.940;2022-07-09T19:12:28;16.40;99.90
31074;DHT22;17730;53.552;9.940;2022-07-09T19:14:54;16.30;99.90
31074;DHT22;17730;53.552;9.940;2022-07-09T22:10:52;16.30;99.90
31074;DHT22;17730;53.552;9.940;2022-07-09T22:13:19;14.30;99.90
31074;DHT22;17730;53.552;9.940;2022-07-09T22:15:45;14.30;99.90
31074;DHT22;17730;53.552;9.940;2022-07-09T22:18:10;14.30;99.90
31074;DHT22;17730;53.552;9.940;2022-07-09T22:20:37;14.30;99.90
31074;DHT22;17730;53.552;9.940;2022-07-09T22:23:02;14.30;99.90
31074;DHT22;17730;53.552;9.940;2022-07-09T22:25:28;14.30;99.90
31074;DHT22;17730;53.552;9.940;2022-07-09T22:27:54;14.40;99.90
31074;DHT22;17730;53.552;9.940;2022-07-09T22:30:19;14.40;99.90
31074;DHT22;17730;53.552;9.940;2022-07-09T22:32:48;14.40;99.90
31074;DHT22;17730;53.552;9.940;2022-07-09T22:35:14;14.40;99.90
31074;DHT22;17730;53.552;9.940;2022-07-09T22:37:39;14.40;99.90
31074;DHT22;17730;53.552;9.940;2022-07-09T22:40:06;14.50;99.90
31074;DHT22;17730;53.552;9.940;2022-07-09T22:42:32;14.40;99.90
31074;DHT22;17730;53.552;9.940;2022-07-09T22:44:58;14.40;99.90
31074;DHT22;17730;53.552;9.940;2022-07-09T22:47:24;14.30;99.90
31074;DHT22;17730;53.552;9.940;2022-07-09T22:49:49;14.30;99.90
31074;DHT22;17730;53.552;9.940;2022-07-09T22:52:15;14.20;99.90
31074;DHT22;17730;53.552;9.940;2022-07-09T22:54:41;14.20;99.90
31074;DHT22;17730;53.552;9.940;2022-07-09T22:57:06;14.10;99.90
31074;DHT22;17730;53.552;9.940;2022-07-09T22:59:33;14.10;99.90
31074;DHT22;17730;53.552;9.940;2022-07-09T23:01:59;14.10;99.90
31074;DHT22;17730;53.552;9.940;2022-07-09T23:04:25;14.10;99.90
31074;DHT22;17730;53.552;9.940;2022-07-09T23:06:51;14.00;99.90
31074;DHT22;17730;53.552;9.940;2022-07-09T23:09:17;14.00;99.90
31074;DHT22;17730;53.552;9.940;2022-07-09T23:11:43;14.00;99.90
31074;DHT22;17730;53.552;9.940;2022-07-09T23:14:08;14.00;99.90
31074;DHT22;17730;53.552;9.940;2022-07-09T23:16:36;14.00;99.90
31074;DHT22;17730;53.552;9.940;2022-07-09T23:19:03;14.00;99.90
31074;DHT22;17730;53.552;9.940;2022-07-09T23:21:29;14.00;99.90
31074;DHT22;17730;53.552;9.940;2022-07-09T23:23:55;14.00;99.90
31074;DHT22;17730;53.552;9.940;2022-07-09T23:26:21;14.00;99.90
31074;DHT22;17730;53.552;9.940;2022-07-09T23:28:47;13.90;99.90
31074;DHT22;17730;53.552;9.940;2022-07-09T23:31:17;14.00;99.90
31074;DHT22;17730;53.552;9.940;2022-07-09T23:33:43;14.00;99.90
31074;DHT22;17730;53.552;9.940;2022-07-09T23:36:09;14.00;99.90
31074;DHT22;17730;53.552;9.940;2022-07-09T23:38:35;14.00;99.90
31074;DHT22;17730;53.552;9.940;2022-07-09T23:41:01;14.00;99.90
31074;DHT22;17730;53.552;9.940;2022-07-09T23:43:27;14.00;99.90
31074;DHT22;17730;53.552;9.940;2022-07-09T23:45:52;14.00;99.90
31074;DHT22;17730;53.552;9.940;2022-07-09T23:48:18;14.00;99.90
31074;DHT22;17730;53.552;9.940;2022-07-09T23:50:44;14.00;99.90
31074;DHT22;17730;53.552;9.940;2022-07-09T23:53:09;14.00;99.90
31074;DHT22;17730;53.552;9.940;2022-07-09T23:55:35;14.00;99.90
31074;DHT22;17730;53.552;9.940;2022-07-09T23:58:01;14.00;99.90
